createdAt,value
2023-10-03T00:00:35.607Z,95814.09
2023-10-03T00:03:37.847Z,95814.41
2023-10-03T00:06:40.289Z,95813.91
2023-10-03T00:09:42.829Z,95810.41
2023-10-03T00:12:49.204Z,95802.28
2023-10-03T00:15:51.201Z,95807.81
2023-10-03T00:18:53.159Z,95817.41
2023-10-03T00:21:55.057Z,95805.13
2023-10-03T00:24:57.076Z,95807.28
2023-10-03T00:28:02.400Z,95794.88
2023-10-03T00:31:13.073Z,95794.50
2023-10-03T00:34:15.643Z,95798.38
2023-10-03T00:37:17.824Z,95807.81
2023-10-03T00:40:22.352Z,95793.22
2023-10-03T00:43:26.010Z,95802.00
2023-10-03T00:46:31.349Z,95802.50
2023-10-03T00:49:33.388Z,95800.53
2023-10-03T00:52:36.363Z,95795.53
2023-10-03T00:55:39.844Z,95802.16
2023-10-03T00:58:42.723Z,95800.84
2023-10-03T01:01:47.677Z,95795.16
2023-10-03T01:04:50.592Z,95792.53
2023-10-03T01:07:52.464Z,95784.41
2023-10-03T01:10:56.282Z,95794.00
2023-10-03T01:13:59.999Z,95792.53
2023-10-03T01:17:03.811Z,95786.91
2023-10-03T01:20:25.018Z,95789.22
2023-10-03T01:23:31.936Z,95780.25
2023-10-03T01:26:34.013Z,95788.19
2023-10-03T01:29:35.873Z,95775.44
2023-10-03T01:32:44.795Z,95773.94
2023-10-03T01:35:47.383Z,95774.59
2023-10-03T01:38:49.564Z,95776.59
2023-10-03T01:41:51.570Z,95779.44
2023-10-03T01:44:53.543Z,95770.81
2023-10-03T01:48:00.325Z,95778.41
2023-10-03T01:51:03.683Z,95770.97
2023-10-03T01:54:07.044Z,95764.50
2023-10-03T01:57:09.088Z,95767.50
2023-10-03T02:00:24.739Z,95761.03
2023-10-03T02:03:30.184Z,95766.19
2023-10-03T02:06:32.715Z,95765.84
2023-10-03T02:09:34.620Z,95746.13
2023-10-03T02:12:36.663Z,95758.69
2023-10-03T02:15:40.059Z,95754.91
2023-10-03T02:18:42.289Z,95750.41
2023-10-03T02:21:44.174Z,95743.09
2023-10-03T02:24:46.100Z,95751.91
2023-10-03T02:27:48.290Z,95746.44
2023-10-03T02:30:52.241Z,95743.13
2023-10-03T02:33:54.933Z,95743.78
2023-10-03T02:36:56.793Z,95742.81
2023-10-03T02:39:58.845Z,95735.50
2023-10-03T02:43:00.803Z,95731.56
2023-10-03T02:46:08.589Z,95729.22
2023-10-03T02:49:11.732Z,95721.75
2023-10-03T02:52:13.675Z,95726.41
2023-10-03T02:55:18.103Z,95721.91
2023-10-03T02:58:21.625Z,95716.47
2023-10-03T03:01:23.621Z,95723.59
2023-10-03T03:04:25.843Z,95721.59
2023-10-03T03:07:28.894Z,95715.78
2023-10-03T03:10:32.167Z,95711.31
2023-10-03T03:13:36.831Z,95721.41
2023-10-03T03:16:41.652Z,95720.13
2023-10-03T03:19:45.433Z,95719.78
2023-10-03T03:22:48.823Z,95712.50
2023-10-03T03:25:58.325Z,95711.31
2023-10-03T03:29:00.654Z,95709.34
2023-10-03T03:32:05.651Z,95714.66
2023-10-03T03:35:10.555Z,95712.00
2023-10-03T03:38:16.568Z,95716.28
2023-10-03T03:41:20.358Z,95722.75
2023-10-03T03:44:22.527Z,95714.47
2023-10-03T03:47:24.495Z,95720.09
2023-10-03T03:50:32.744Z,95712.00
2023-10-03T03:53:36.351Z,95713.97
2023-10-03T03:56:41.453Z,95711.31
2023-10-03T03:59:43.414Z,95700.38
2023-10-03T04:02:45.454Z,95685.94
2023-10-03T04:05:51.179Z,95707.66
2023-10-03T04:09:07.706Z,95706.31
2023-10-03T04:12:13.294Z,95695.50
2023-10-03T04:15:15.630Z,95691.75
2023-10-03T04:18:17.573Z,95694.06
2023-10-03T04:21:27.623Z,95697.03
2023-10-03T04:24:30.525Z,95694.06
2023-10-03T04:27:33.602Z,95696.19
2023-10-03T04:30:35.559Z,95702.88
2023-10-03T04:33:37.580Z,95702.03
2023-10-03T04:36:39.689Z,95696.88
2023-10-03T04:39:43.079Z,95694.72
2023-10-03T04:42:46.664Z,95700.69
2023-10-03T04:45:48.690Z,95704.16
2023-10-03T04:48:52.041Z,95692.88
2023-10-03T04:51:54.008Z,95697.34
2023-10-03T04:54:55.853Z,95689.91
2023-10-03T04:57:57.736Z,95689.09
2023-10-03T05:00:59.844Z,95680.81
2023-10-03T05:04:03.184Z,95689.09
2023-10-03T05:07:05.093Z,95696.06
2023-10-03T05:10:07.759Z,95688.44
2023-10-03T05:13:09.639Z,95692.91
2023-10-03T05:16:11.568Z,95689.22
2023-10-03T05:19:13.413Z,95693.22
2023-10-03T05:22:15.337Z,95692.06
2023-10-03T05:25:19.852Z,95693.69
2023-10-03T05:28:21.743Z,95701.31
2023-10-03T05:31:24.358Z,95701.44
2023-10-03T05:34:26.280Z,95710.22
2023-10-03T05:37:28.604Z,95704.53
2023-10-03T05:40:31.791Z,95694.88
2023-10-03T05:43:34.330Z,95687.06
2023-10-03T05:46:38.080Z,95692.31
2023-10-03T05:49:40.610Z,95701.38
2023-10-03T05:52:45.091Z,95696.69
2023-10-03T05:55:46.981Z,95695.59
2023-10-03T05:58:49.083Z,95704.53
2023-10-03T06:01:51.350Z,95702.44
2023-10-03T06:04:54.968Z,95697.00
2023-10-03T06:07:56.791Z,95707.91
2023-10-03T06:11:04.541Z,95703.00
2023-10-03T06:14:06.984Z,95705.81
2023-10-03T06:17:09.643Z,95705.63
2023-10-03T06:20:15.939Z,95689.81
2023-10-03T06:23:22.161Z,95698.59
2023-10-03T06:26:24.117Z,95703.94
2023-10-03T06:29:28.660Z,95700.03
2023-10-03T06:32:30.683Z,95700.09
2023-10-03T06:35:33.512Z,95696.44
2023-10-03T06:38:35.861Z,95695.53
2023-10-03T06:41:39.427Z,95696.91
2023-10-03T06:44:44.347Z,95692.97
2023-10-03T06:47:46.403Z,95702.41
2023-10-03T06:50:48.546Z,95695.25
2023-10-03T06:53:50.776Z,95698.19
2023-10-03T06:56:52.930Z,95715.56
2023-10-03T06:59:55.847Z,95714.59
2023-10-03T07:02:58.204Z,95700.19
2023-10-03T07:06:00.292Z,95713.19
2023-10-03T07:09:06.771Z,95711.44
2023-10-03T07:12:09.488Z,95711.66
2023-10-03T07:15:13.115Z,95699.91
2023-10-03T07:18:15.806Z,95704.50
2023-10-03T07:21:17.822Z,95701.69
2023-10-03T07:24:22.055Z,95712.69
2023-10-03T07:27:24.143Z,95706.84
2023-10-03T07:30:27.025Z,95718.69
2023-10-03T07:33:29.456Z,95707.75
2023-10-03T07:36:31.470Z,95712.09
2023-10-03T07:39:33.407Z,95718.22
2023-10-03T07:42:35.311Z,95727.28
2023-10-03T07:45:38.897Z,95727.16
2023-10-03T07:48:44.352Z,95724.75
2023-10-03T07:51:47.023Z,95726.34
2023-10-03T07:54:56.117Z,95734.06
2023-10-03T07:58:02.285Z,95718.81
2023-10-03T08:01:06.194Z,95720.53
2023-10-03T08:04:10.049Z,95720.28
2023-10-03T08:07:23.223Z,95720.97
2023-10-03T08:10:30.406Z,95714.00
2023-10-03T08:13:32.377Z,95724.13
2023-10-03T08:16:35.671Z,95719.81
2023-10-03T08:19:41.500Z,95717.56
2023-10-03T08:22:44.062Z,95722.31
2023-10-03T08:25:46.170Z,95714.53
2023-10-03T08:29:00.350Z,95708.44
2023-10-03T08:32:05.702Z,95709.75
2023-10-03T08:35:09.704Z,95702.97
2023-10-03T08:38:16.012Z,95708.97
2023-10-03T08:41:27.851Z,95706.97
2023-10-03T08:44:38.310Z,95710.91
2023-10-03T08:47:48.399Z,95712.28
2023-10-03T08:50:54.176Z,95717.13
2023-10-03T08:54:10.287Z,95711.72
2023-10-03T08:57:12.668Z,95704.97
2023-10-03T09:00:16.023Z,95704.34
2023-10-03T09:03:22.295Z,95704.72
2023-10-03T09:06:27.420Z,95692.56
2023-10-03T09:09:32.691Z,95704.84
2023-10-03T09:12:34.912Z,95688.38
2023-10-03T09:15:43.883Z,95697.09
2023-10-03T09:18:57.764Z,95696.97
2023-10-03T09:22:01.389Z,95701.84
2023-10-03T09:25:04.136Z,95697.00
2023-10-03T09:28:11.349Z,95698.91
2023-10-03T09:31:13.257Z,95699.81
2023-10-03T09:34:19.018Z,95699.47
2023-10-03T09:37:21.290Z,95708.00
2023-10-03T09:40:23.861Z,95699.31
2023-10-03T09:43:28.790Z,95708.00
2023-10-03T09:46:40.254Z,95704.19
2023-10-03T09:49:42.501Z,95710.19
2023-10-03T09:52:47.106Z,95701.72
2023-10-03T09:55:50.484Z,95697.09
2023-10-03T09:58:54.585Z,95699.50
2023-10-03T10:01:56.721Z,95700.16
2023-10-03T10:05:03.521Z,95700.00
2023-10-03T10:08:43.890Z,95689.34
2023-10-03T10:12:13.672Z,95689.25
2023-10-03T10:15:15.945Z,95679.69
2023-10-03T10:18:46.983Z,95689.44
2023-10-03T10:22:00.536Z,95687.38
2023-10-03T10:25:26.997Z,95678.00
2023-10-03T10:28:33.307Z,95683.59
2023-10-03T10:31:43.967Z,95664.84
2023-10-03T10:34:48.334Z,95668.34
2023-10-03T10:37:51.120Z,95671.63
2023-10-03T10:41:24.041Z,95675.63
2023-10-03T10:44:28.715Z,95677.78
2023-10-03T10:47:37.031Z,95670.50
2023-10-03T10:51:06.005Z,95669.41
2023-10-03T10:54:08.813Z,95652.63
2023-10-03T10:57:12.157Z,95660.22
2023-10-03T11:00:18.656Z,95661.53
2023-10-03T11:03:23.283Z,95650.06
2023-10-03T11:06:27.114Z,95632.56
2023-10-03T11:09:31.049Z,95641.47
2023-10-03T11:12:33.004Z,95645.00
2023-10-03T11:15:35.364Z,95630.78
2023-10-03T11:18:37.844Z,95633.75
2023-10-03T11:21:41.648Z,95633.06
2023-10-03T11:24:43.560Z,95629.84
2023-10-03T11:27:47.364Z,95625.44
2023-10-03T11:31:05.941Z,95617.31
2023-10-03T11:34:08.357Z,95628.19
2023-10-03T11:37:10.413Z,95620.28
2023-10-03T11:40:15.965Z,95620.34
2023-10-03T11:43:24.385Z,95608.22
2023-10-03T11:46:26.676Z,95591.34
2023-10-03T11:49:28.749Z,95600.81
2023-10-03T11:52:30.595Z,95598.03
2023-10-03T11:55:43.494Z,95599.69
2023-10-03T11:58:45.389Z,95596.31
2023-10-03T12:01:58.285Z,95602.53
2023-10-03T12:05:01.286Z,95604.47
2023-10-03T12:08:06.466Z,95600.56
2023-10-03T12:11:08.579Z,95590.03
2023-10-03T12:14:14.400Z,95601.03
2023-10-03T12:17:17.137Z,95584.72
2023-10-03T12:20:29.914Z,95582.22
2023-10-03T12:23:32.123Z,95572.69
2023-10-03T12:26:35.191Z,95587.47
2023-10-03T12:29:38.483Z,95577.72
2023-10-03T12:32:42.502Z,95576.38
2023-10-03T12:35:45.113Z,95568.66
2023-10-03T12:38:47.264Z,95561.19
2023-10-03T12:41:49.211Z,95563.75
2023-10-03T12:44:54.201Z,95551.91
2023-10-03T12:47:56.465Z,95565.53
2023-10-03T12:51:00.744Z,95564.50
2023-10-03T12:54:05.780Z,95556.22
2023-10-03T12:57:07.968Z,95544.34
2023-10-03T13:00:10.237Z,95557.69
2023-10-03T13:03:15.464Z,95547.28
2023-10-03T13:06:20.305Z,95543.06
2023-10-03T13:09:22.936Z,95554.44
2023-10-03T13:12:24.841Z,95536.00
2023-10-03T13:15:27.334Z,95531.75
2023-10-03T13:18:29.388Z,95538.59
2023-10-03T13:21:33.605Z,95526.34
2023-10-03T13:24:35.766Z,95516.06
2023-10-03T13:27:37.898Z,95523.41
2023-10-03T13:30:40.127Z,95519.09
2023-10-03T13:33:42.200Z,95513.16
2023-10-03T13:36:44.128Z,95520.84
2023-10-03T13:39:45.935Z,95520.09
2023-10-03T13:42:49.963Z,95504.19
2023-10-03T13:45:52.427Z,95512.03
2023-10-03T13:48:54.451Z,95494.56
2023-10-03T13:51:56.353Z,95507.25
2023-10-03T13:55:01.170Z,95499.41
2023-10-03T13:58:04.240Z,95489.28
2023-10-03T14:01:13.384Z,95497.53
2023-10-03T14:04:15.317Z,95498.72
2023-10-03T14:07:17.483Z,95497.84
2023-10-03T14:10:22.100Z,95493.72
2023-10-03T14:13:23.843Z,95489.72
2023-10-03T14:16:27.045Z,95487.47
2023-10-03T14:19:31.225Z,95475.16
2023-10-03T14:22:33.374Z,95475.97
2023-10-03T14:25:35.210Z,95471.03
2023-10-03T14:28:38.384Z,95472.31
2023-10-03T14:31:41.187Z,95479.13
2023-10-03T14:34:43.092Z,95475.38
2023-10-03T14:37:45.946Z,95477.53
2023-10-03T14:40:48.534Z,95473.38
2023-10-03T14:43:50.563Z,95471.25
2023-10-03T14:46:52.563Z,95464.25
2023-10-03T14:49:55.040Z,95449.34
2023-10-03T14:52:57.085Z,95455.91
2023-10-03T14:55:59.382Z,95450.53
2023-10-03T14:59:01.467Z,95457.53
2023-10-03T15:02:04.240Z,95444.09
2023-10-03T15:05:07.425Z,95449.03
2023-10-03T15:08:09.887Z,95448.78
2023-10-03T15:11:11.740Z,95458.44
2023-10-03T15:14:13.602Z,95458.19
2023-10-03T15:17:18.378Z,95460.56
2023-10-03T15:20:23.315Z,95461.66
2023-10-03T15:23:27.786Z,95459.63
2023-10-03T15:26:31.174Z,95458.19
2023-10-03T15:29:33.355Z,95456.44
2023-10-03T15:32:35.575Z,95457.94
2023-10-03T15:35:37.581Z,95459.41
2023-10-03T15:38:39.553Z,95463.38
2023-10-03T15:41:41.586Z,95458.25
2023-10-03T15:44:54.446Z,95458.28
2023-10-03T15:48:07.351Z,95449.88
2023-10-03T15:51:15.309Z,95450.53
2023-10-03T15:54:17.868Z,95457.63
2023-10-03T15:57:20.249Z,95449.41
2023-10-03T16:00:22.334Z,95445.16
2023-10-03T16:03:24.463Z,95444.00
2023-10-03T16:06:26.459Z,95443.84
2023-10-03T16:09:29.154Z,95450.69
2023-10-03T16:12:35.381Z,95444.53
2023-10-03T16:15:37.440Z,95445.78
2023-10-03T16:18:39.597Z,95438.81
2023-10-03T16:21:42.499Z,95450.34
2023-10-03T16:24:45.100Z,95445.00
2023-10-03T16:27:50.259Z,95450.34
2023-10-03T16:30:52.477Z,95457.13
2023-10-03T16:33:57.839Z,95444.19
2023-10-03T16:37:00.950Z,95445.44
2023-10-03T16:40:04.449Z,95440.44
2023-10-03T16:43:08.631Z,95436.34
2023-10-03T16:46:11.290Z,95434.25
2023-10-03T16:49:14.657Z,95433.84
2023-10-03T16:52:17.107Z,95426.44
2023-10-03T16:55:20.432Z,95420.88
2023-10-03T16:58:22.323Z,95415.53
2023-10-03T17:01:24.302Z,95412.03
2023-10-03T17:04:26.385Z,95406.69
2023-10-03T17:07:28.458Z,95411.22
2023-10-03T17:10:30.442Z,95404.47
2023-10-03T17:13:32.412Z,95401.78
2023-10-03T17:16:35.142Z,95400.53
2023-10-03T17:19:37.071Z,95402.19
2023-10-03T17:22:40.364Z,95399.31
2023-10-03T17:25:43.523Z,95397.03
2023-10-03T17:28:46.616Z,95404.63
2023-10-03T17:31:49.101Z,95414.47
2023-10-03T17:34:51.369Z,95405.22
2023-10-03T17:37:53.541Z,95407.91
2023-10-03T17:40:55.353Z,95404.22
2023-10-03T17:43:57.189Z,95403.59
2023-10-03T17:46:59.463Z,95405.63
2023-10-03T17:50:01.817Z,95410.38
2023-10-03T17:53:03.953Z,95413.25
2023-10-03T17:56:06.023Z,95409.94
2023-10-03T17:59:08.956Z,95409.34
2023-10-03T18:02:10.831Z,95411.19
2023-10-03T18:05:13.964Z,95415.03
2023-10-03T18:08:16.280Z,95415.69
2023-10-03T18:11:18.811Z,95421.19
2023-10-03T18:14:21.166Z,95404.50
2023-10-03T18:17:23.282Z,95420.75
2023-10-03T18:20:25.321Z,95426.31
2023-10-03T18:23:31.044Z,95420.50
2023-10-03T18:26:33.772Z,95416.84
2023-10-03T18:29:36.095Z,95418.06
2023-10-03T18:32:42.987Z,95421.34
2023-10-03T18:35:45.221Z,95418.00
2023-10-03T18:38:47.683Z,95418.63
2023-10-03T18:41:50.376Z,95416.38
2023-10-03T18:44:53.053Z,95418.34
2023-10-03T18:47:58.489Z,95417.94
2023-10-03T18:51:08.115Z,95417.06
2023-10-03T18:54:10.473Z,95417.47
2023-10-03T18:57:12.680Z,95419.50
2023-10-03T19:00:16.081Z,95420.31
2023-10-03T19:03:18.533Z,95417.41
2023-10-03T19:06:20.857Z,95423.56
2023-10-03T19:09:23.168Z,95416.56
2023-10-03T19:12:25.453Z,95414.34
2023-10-03T19:15:28.825Z,95403.06
2023-10-03T19:18:31.204Z,95410.41
2023-10-03T19:21:34.171Z,95407.50
2023-10-03T19:24:36.891Z,95401.16
2023-10-03T19:27:42.186Z,95397.03
2023-10-03T19:30:44.685Z,95404.44
2023-10-03T19:33:47.147Z,95405.50
2023-10-03T19:36:49.837Z,95404.66
2023-10-03T19:39:52.384Z,95405.88
2023-10-03T19:42:55.899Z,95409.38
2023-10-03T19:46:00.772Z,95402.38
2023-10-03T19:49:03.796Z,95398.03
2023-10-03T19:52:06.566Z,95394.75
2023-10-03T19:55:11.009Z,95398.81
2023-10-03T19:58:13.071Z,95393.44
2023-10-03T20:01:23.209Z,95394.22
2023-10-03T20:04:25.377Z,95396.31
2023-10-03T20:07:27.575Z,95394.41
2023-10-03T20:10:29.580Z,95395.88
2023-10-03T20:13:31.505Z,95400.34
2023-10-03T20:16:33.741Z,95399.91
2023-10-03T20:19:36.062Z,95402.78
2023-10-03T20:22:44.185Z,95393.13
2023-10-03T20:25:46.787Z,95389.00
2023-10-03T20:28:51.601Z,95385.44
2023-10-03T20:31:53.728Z,95390.16
2023-10-03T20:34:55.706Z,95386.28
2023-10-03T20:37:58.715Z,95401.06
2023-10-03T20:41:07.419Z,95390.41
2023-10-03T20:44:09.589Z,95399.47
2023-10-03T20:47:11.474Z,95394.50
2023-10-03T20:50:13.400Z,95396.53
2023-10-03T20:53:15.852Z,95404.91
2023-10-03T20:56:17.826Z,95406.31
2023-10-03T20:59:22.686Z,95412.69
2023-10-03T21:02:26.403Z,95414.13
2023-10-03T21:05:28.850Z,95403.81
2023-10-03T21:08:30.910Z,95401.59
2023-10-03T21:11:33.478Z,95399.31
2023-10-03T21:14:35.381Z,95409.09
2023-10-03T21:17:37.448Z,95384.25
2023-10-03T21:20:39.480Z,95399.06
2023-10-03T21:23:43.826Z,95408.72
2023-10-03T21:26:46.271Z,95403.19
2023-10-03T21:29:50.288Z,95394.75
2023-10-03T21:32:52.457Z,95398.06
2023-10-03T21:35:54.447Z,95402.59
2023-10-03T21:38:56.404Z,95399.66
2023-10-03T21:41:58.416Z,95389.16
2023-10-03T21:45:00.340Z,95391.19
2023-10-03T21:48:03.337Z,95391.47
2023-10-03T21:51:08.760Z,95395.19
2023-10-03T21:54:10.755Z,95392.09
2023-10-03T21:57:16.387Z,95385.69
2023-10-03T22:00:35.740Z,95392.88
2023-10-03T22:03:38.189Z,95383.50
2023-10-03T22:06:40.247Z,95388.41
2023-10-03T22:09:44.264Z,95387.78
2023-10-03T22:12:50.979Z,95374.25
2023-10-03T22:15:52.831Z,95373.25
2023-10-03T22:18:54.957Z,95385.53
2023-10-03T22:21:56.941Z,95383.03
2023-10-03T22:24:58.801Z,95380.13
2023-10-03T22:28:00.658Z,95375.59
2023-10-03T22:31:02.572Z,95376.09
2023-10-03T22:34:04.488Z,95379.25
2023-10-03T22:37:07.069Z,95376.00
2023-10-03T22:40:09.802Z,95357.94
2023-10-03T22:43:12.417Z,95359.44
2023-10-03T22:46:14.897Z,95353.28
2023-10-03T22:49:18.228Z,95359.97
2023-10-03T22:52:23.936Z,95347.47
2023-10-03T22:55:28.407Z,95362.50
2023-10-03T22:58:32.924Z,95362.97
2023-10-03T23:01:36.375Z,95357.84
2023-10-03T23:04:40.836Z,95347.69
2023-10-03T23:07:42.785Z,95346.28
2023-10-03T23:10:45.703Z,95325.13
2023-10-03T23:14:09.902Z,95329.91
2023-10-03T23:17:12.630Z,95328.25
2023-10-03T23:20:21.487Z,95325.56
2023-10-03T23:23:33.893Z,95335.22
2023-10-03T23:26:39.809Z,95337.03
2023-10-03T23:29:41.998Z,95346.69
2023-10-03T23:32:46.352Z,95368.78
2023-10-03T23:35:48.926Z,95372.50
2023-10-03T23:38:51.130Z,95377.25
2023-10-03T23:41:55.521Z,95369.25
2023-10-03T23:44:57.684Z,95363.94
2023-10-03T23:47:59.906Z,95354.94
2023-10-03T23:51:04.265Z,95342.72
2023-10-03T23:54:11.349Z,95330.59
2023-10-03T23:57:20.285Z,95345.38
